Time;durP1;ratioP1;P1;durP2;ratioP2;P2;SDS_P1;SDS_P2;PMS_P1;PMS_P2;Temp;Humidity;BMP_temperature;BMP_pressure;BME280_temperature;BME280_humidity;BME280_pressure;Samples;Min_cycle;Max_cycle;Signal;HPM_P1;HPM_P2
2022/04/02 00:00:45;;;;;;;5.32;2.65;;;1.60;99.90;;;;;;5073528;28;20028;-85
2022/04/02 00:03:29;;;;;;;5.43;2.33;;;1.60;99.90;;;;;;5073213;28;20028;-85
2022/04/02 00:05:55;;;;;;;8.73;3.17;;;1.60;99.90;;;;;;5073689;28;20035;-85
2022/04/02 00:08:21;;;;;;;5.40;2.33;;;1.60;99.90;;;;;;5055521;28;20020;-86
2022/04/02 00:11:16;;;;;;;4.30;2.13;;;1.50;99.90;;;;;;5073539;28;20021;-85
2022/04/02 00:13:41;;;;;;;3.83;2.22;;;1.50;99.90;;;;;;5073368;28;20020;-85
2022/04/02 00:16:07;;;;;;;4.47;2.22;;;1.50;99.90;;;;;;5073184;28;20047;-86
2022/04/02 00:18:49;;;;;;;4.75;2.08;;;1.50;99.90;;;;;;5073280;28;20021;-85
2022/04/02 00:21:15;;;;;;;10.27;2.88;;;1.50;99.90;;;;;;5073320;28;20078;-85
2022/04/02 00:23:47;;;;;;;4.80;2.42;;;1.50;99.90;;;;;;5073200;28;20543;-85
2022/04/02 00:26:15;;;;;;;7.50;2.70;;;1.50;99.90;;;;;;5073262;28;20027;-85
2022/04/02 00:28:43;;;;;;;4.35;2.30;;;1.40;99.90;;;;;;5073248;28;20481;-86
2022/04/02 00:31:12;;;;;;;5.88;2.58;;;1.50;99.90;;;;;;5072945;28;20074;-86
2022/04/02 00:34:01;;;;;;;10.48;2.45;;;1.50;99.90;;;;;;5072396;28;20387;-85
2022/04/02 00:36:27;;;;;;;6.70;2.63;;;1.50;99.90;;;;;;5055219;28;20020;-86
2022/04/02 00:39:14;;;;;;;10.00;2.58;;;1.40;99.90;;;;;;5073005;28;20024;-85
2022/04/02 00:41:40;;;;;;;6.22;2.58;;;1.50;99.90;;;;;;5054974;28;20028;-85
2022/04/02 00:44:13;;;;;;;3.50;2.88;;;1.50;99.90;;;;;;5072711;28;20012;-86
2022/04/02 00:46:53;;;;;;;12.02;3.10;;;1.40;99.90;;;;;;5073093;28;20021;-86
2022/04/02 00:49:20;;;;;;;12.98;3.17;;;1.50;99.90;;;;;;5072974;28;20055;-86
2022/04/02 00:51:46;;;;;;;11.05;4.13;;;1.40;99.90;;;;;;5072893;28;20029;-86
2022/04/02 00:54:31;;;;;;;4.05;3.25;;;1.40;99.90;;;;;;5054720;28;20040;-86
2022/04/02 00:56:58;;;;;;;2.85;2.10;;;1.40;99.90;;;;;;5054963;28;20084;-85
2022/04/02 00:59:23;;;;;;;3.95;2.80;;;1.40;99.90;;;;;;5072628;28;20472;-85
2022/04/02 01:02:04;;;;;;;9.25;2.60;;;1.40;99.90;;;;;;5072609;28;20086;-85
2022/04/02 01:04:29;;;;;;;13.38;2.97;;;1.30;99.90;;;;;;5072616;28;20111;-85
2022/04/02 01:06:56;;;;;;;8.27;2.47;;;1.30;99.90;;;;;;5054863;28;20434;-85
2022/04/02 01:09:51;;;;;;;7.75;2.47;;;1.30;99.90;;;;;;5072794;28;20472;-85
2022/04/02 01:12:16;;;;;;;5.80;2.58;;;1.30;99.90;;;;;;5054622;28;20475;-85
2022/04/02 01:14:42;;;;;;;4.53;2.58;;;1.30;99.90;;;;;;5072470;28;20052;-85
2022/04/02 01:17:40;;;;;;;5.47;2.58;;;1.30;99.90;;;;;;5072605;28;20032;-86
2022/04/02 01:20:08;;;;;;;5.53;2.45;;;1.30;99.90;;;;;;5054751;28;20387;-86
2022/04/02 01:22:34;;;;;;;6.88;2.65;;;1.20;99.90;;;;;;5072276;28;20028;-84
2022/04/02 01:25:09;;;;;;;8.23;2.55;;;1.20;99.90;;;;;;5072728;28;20353;-85
2022/04/02 01:27:34;;;;;;;5.63;3.00;;;1.20;99.90;;;;;;5072664;28;20017;-85
2022/04/02 01:30:00;;;;;;;5.55;2.78;;;1.20;99.90;;;;;;5072218;28;20036;-86
2022/04/02 01:32:28;;;;;;;8.75;2.85;;;1.20;99.90;;;;;;5054204;28;20039;-85
2022/04/02 01:34:57;;;;;;;10.07;2.95;;;1.20;99.90;;;;;;5072279;28;20057;-85
2022/04/02 01:37:23;;;;;;;8.82;2.55;;;1.20;99.90;;;;;;5054368;28;20028;-84
2022/04/02 01:39:49;;;;;;;5.10;2.35;;;1.20;99.90;;;;;;5054542;28;20365;-85
2022/04/02 01:42:17;;;;;;;4.13;2.60;;;1.20;99.90;;;;;;5072250;28;20450;-85
2022/04/02 01:44:51;;;;;;;7.50;2.42;;;1.10;99.90;;;;;;5071937;28;20017;-85
2022/04/02 01:47:20;;;;;;;9.18;2.30;;;1.20;99.90;;;;;;5075043;28;20153;-86
2022/04/02 01:49:47;;;;;;;4.97;2.25;;;1.10;99.90;;;;;;5076103;28;20400;-85
2022/04/02 01:52:18;;;;;;;6.13;2.85;;;1.20;99.90;;;;;;5057834;28;20029;-86
2022/04/02 01:54:44;;;;;;;6.90;2.58;;;1.10;99.90;;;;;;5075957;28;20113;-86
2022/04/02 01:57:10;;;;;;;5.40;2.60;;;1.10;99.90;;;;;;5076210;28;20978;-85
2022/04/02 01:59:44;;;;;;;6.28;3.17;;;1.10;99.90;;;;;;5075739;28;20036;-85
2022/04/02 02:02:13;;;;;;;10.10;2.97;;;1.10;99.90;;;;;;5075935;28;21126;-85
2022/04/02 02:04:55;;;;;;;3.78;2.30;;;1.10;99.90;;;;;;5075757;28;20013;-85
2022/04/02 02:07:20;;;;;;;4.70;2.55;;;1.10;99.90;;;;;;5075618;28;20053;-85
2022/04/02 02:10:05;;;;;;;3.78;2.65;;;1.10;99.90;;;;;;5075786;28;20016;-85
2022/04/02 02:12:30;;;;;;;5.15;2.63;;;1.10;99.90;;;;;;5075763;28;20066;-85
2022/04/02 02:14:56;;;;;;;6.35;2.80;;;1.00;99.90;;;;;;5057473;28;20060;-86
2022/04/02 02:17:47;;;;;;;6.55;2.83;;;1.00;99.90;;;;;;5075621;28;20039;-84
2022/04/02 02:20:14;;;;;;;5.00;2.50;;;1.00;99.90;;;;;;5075549;28;20089;-86
2022/04/02 02:22:40;;;;;;;8.00;3.17;;;1.00;99.90;;;;;;5075382;28;20025;-86
2022/04/02 02:25:17;;;;;;;5.70;2.88;;;1.10;99.90;;;;;;5075625;28;20483;-85
2022/04/02 02:27:45;;;;;;;7.25;2.38;;;1.10;99.90;;;;;;5075881;28;20040;-85
2022/04/02 02:30:35;;;;;;;4.90;2.35;;;1.00;99.90;;;;;;5075229;28;20047;-84
2022/04/02 02:35:51;;;;;;;2.55;2.13;;;1.00;99.90;;;;;;5065241;28;20102;-85
2022/04/02 02:38:23;;;;;;;5.07;2.67;;;1.00;99.90;;;;;;5075239;28;20032;-85
2022/04/02 02:40:50;;;;;;;5.13;2.72;;;1.00;99.90;;;;;;5075204;28;20460;-86
2022/04/02 02:43:17;;;;;;;6.07;2.47;;;1.00;99.90;;;;;;5074967;28;20028;-86
2022/04/02 02:45:43;;;;;;;5.03;2.60;;;1.00;99.90;;;;;;5074916;28;20146;-86
2022/04/02 02:48:09;;;;;;;7.90;3.03;;;1.00;99.90;;;;;;5075109;28;20013;-86
2022/04/02 02:50:35;;;;;;;5.57;2.83;;;1.00;99.90;;;;;;5075222;28;20025;-85
2022/04/02 02:53:02;;;;;;;5.25;2.85;;;1.00;99.90;;;;;;5075038;28;20367;-86
2022/04/02 02:55:28;;;;;;;7.32;3.33;;;1.00;99.90;;;;;;5057204;28;20114;-87
2022/04/02 02:57:54;;;;;;;8.68;2.83;;;1.00;99.90;;;;;;5056267;28;20024;-86
2022/04/02 03:00:37;;;;;;;7.40;2.92;;;1.00;99.90;;;;;;5074587;28;20090;-86
2022/04/02 03:03:03;;;;;;;8.35;2.80;;;1.00;99.90;;;;;;5056878;28;20036;-86
2022/04/02 03:05:29;;;;;;;9.25;2.65;;;1.00;99.90;;;;;;5074873;28;20183;-86
2022/04/02 03:08:08;;;;;;;4.97;2.55;;;1.00;99.90;;;;;;5056881;28;20137;-85
2022/04/02 03:10:34;;;;;;;6.43;3.40;;;1.00;99.90;;;;;;5074669;28;20472;-86
2022/04/02 03:13:00;;;;;;;8.48;3.25;;;1.00;99.90;;;;;;5074348;28;20021;-85
2022/04/02 03:19:09;;;;;;;5.75;2.95;;;0.90;99.90;;;;;;5074586;28;20023;-85
2022/04/02 03:21:34;;;;;;;6.63;3.35;;;0.90;99.90;;;;;;5074483;28;20040;-84
2022/04/02 03:24:01;;;;;;;5.03;2.95;;;0.90;99.90;;;;;;5074440;28;20074;-84
2022/04/02 03:26:53;;;;;;;5.82;2.30;;;0.90;99.90;;;;;;5074222;28;20013;-84
2022/04/02 03:29:20;;;;;;;6.38;2.83;;;0.90;99.90;;;;;;5073889;28;20472;-85
2022/04/02 03:31:46;;;;;;;11.23;3.17;;;0.90;99.90;;;;;;5074262;28;20032;-85
2022/04/02 03:34:26;;;;;;;5.55;2.70;;;0.90;99.90;;;;;;5074074;28;20103;-86
2022/04/02 03:36:52;;;;;;;6.28;3.13;;;0.90;99.90;;;;;;5020168;28;20048;-85
2022/04/02 03:39:19;;;;;;;7.85;3.30;;;0.90;99.90;;;;;;5023826;28;20029;-86
2022/04/02 03:41:45;;;;;;;8.25;3.33;;;0.90;99.90;;;;;;5049437;28;20477;-86
2022/04/02 03:44:15;;;;;;;5.88;2.47;;;0.90;99.90;;;;;;5033868;28;20026;-83
2022/04/02 03:49:32;;;;;;;6.53;2.80;;;0.90;99.90;;;;;;5034405;28;20036;-84
2022/04/02 03:51:58;;;;;;;6.18;3.17;;;0.90;99.90;;;;;;5032478;28;20488;-84
2022/04/02 03:54:39;;;;;;;13.77;3.50;;;0.90;99.90;;;;;;5024423;28;20057;-85
2022/04/02 03:57:13;;;;;;;9.13;3.17;;;0.90;99.90;;;;;;5014094;28;20033;-85
2022/04/02 03:59:47;;;;;;;5.18;2.97;;;0.90;99.90;;;;;;5024768;28;20377;-84
2022/04/02 04:02:12;;;;;;;8.00;3.50;;;0.80;99.90;;;;;;5032308;28;20026;-84
2022/04/02 04:04:41;;;;;;;8.15;4.07;;;0.80;99.90;;;;;;5033682;28;20148;-84
2022/04/02 04:07:15;;;;;;;7.75;3.63;;;0.80;99.90;;;;;;5033899;28;20067;-84
2022/04/02 04:09:40;;;;;;;7.22;3.03;;;0.90;99.90;;;;;;5032891;28;20465;-84
2022/04/02 04:12:10;;;;;;;5.35;3.17;;;0.80;99.90;;;;;;5033600;28;20045;-85
2022/04/02 04:14:41;;;;;;;7.95;3.42;;;0.80;99.90;;;;;;5033373;28;20075;-84
2022/04/02 04:17:07;;;;;;;7.82;3.28;;;0.80;99.90;;;;;;5033358;28;20033;-84
2022/04/02 04:19:42;;;;;;;5.93;3.17;;;0.80;99.90;;;;;;5033481;28;20366;-83
2022/04/02 04:22:07;;;;;;;11.23;3.33;;;0.80;99.90;;;;;;5031859;28;20029;-85
2022/04/02 04:24:43;;;;;;;6.53;2.92;;;0.70;99.90;;;;;;5032957;28;20035;-84
2022/04/02 04:27:09;;;;;;;3.92;3.10;;;0.70;99.90;;;;;;5033258;28;20026;-85
2022/04/02 04:29:39;;;;;;;8.02;3.47;;;0.70;99.90;;;;;;5031834;28;20428;-84
2022/04/02 04:32:06;;;;;;;7.68;3.72;;;0.70;99.90;;;;;;5033079;28;20029;-85
2022/04/02 04:34:33;;;;;;;6.90;3.13;;;0.70;99.90;;;;;;5034263;28;20081;-84
2022/04/02 04:36:59;;;;;;;6.38;3.50;;;0.70;99.90;;;;;;5073136;28;20060;-86
2022/04/02 04:39:25;;;;;;;7.57;3.50;;;0.70;99.90;;;;;;5073181;28;20024;-84
2022/04/02 04:42:23;;;;;;;9.65;3.47;;;0.80;99.90;;;;;;5072746;28;20027;-84
2022/04/02 04:44:49;;;;;;;5.38;3.45;;;0.70;99.90;;;;;;5072777;28;20035;-84
2022/04/02 04:47:15;;;;;;;11.65;4.10;;;0.70;99.90;;;;;;5073012;28;20024;-84
2022/04/02 04:49:40;;;;;;;10.20;3.92;;;0.70;99.90;;;;;;5073028;28;20468;-84
2022/04/02 04:52:06;;;;;;;8.82;3.58;;;0.70;99.90;;;;;;5054765;28;20468;-84
2022/04/02 04:54:32;;;;;;;16.23;3.80;;;0.60;99.90;;;;;;5072822;28;20414;-85
2022/04/02 04:56:58;;;;;;;12.57;4.18;;;0.60;99.90;;;;;;5054788;28;20048;-83
2022/04/02 04:59:24;;;;;;;7.15;3.75;;;0.60;99.90;;;;;;5072577;28;20025;-84
2022/04/02 05:01:49;;;;;;;11.82;4.25;;;0.70;99.90;;;;;;5054756;28;20423;-84
2022/04/02 05:04:15;;;;;;;9.82;3.88;;;0.70;99.90;;;;;;5072600;28;20029;-83
2022/04/02 05:06:49;;;;;;;4.88;3.47;;;0.70;99.90;;;;;;5054543;28;20357;-83
2022/04/02 05:09:15;;;;;;;20.25;4.35;;;0.70;99.90;;;;;;5054769;28;20056;-83
2022/04/02 05:11:41;;;;;;;7.72;3.20;;;0.70;99.90;;;;;;5072756;28;20086;-83
2022/04/02 05:14:08;;;;;;;6.25;3.15;;;0.70;99.90;;;;;;5054038;28;20024;-84
2022/04/02 05:16:35;;;;;;;5.13;3.25;;;0.70;99.90;;;;;;5054996;28;20031;-84
2022/04/02 05:19:11;;;;;;;8.43;3.63;;;0.60;99.90;;;;;;5072037;28;20357;-84
2022/04/02 05:21:36;;;;;;;11.25;3.60;;;0.70;99.90;;;;;;5075308;28;20017;-85
2022/04/02 05:24:17;;;;;;;11.38;3.47;;;0.70;99.90;;;;;;5076291;28;20499;-85
2022/04/02 05:26:55;;;;;;;7.53;3.50;;;0.70;99.90;;;;;;5076415;28;20025;-84
2022/04/02 05:29:21;;;;;;;10.88;4.07;;;0.60;99.90;;;;;;5076186;28;20023;-84
2022/04/02 05:31:47;;;;;;;7.95;3.83;;;0.60;99.90;;;;;;5076536;28;20032;-85
2022/04/02 05:34:15;;;;;;;8.48;3.90;;;0.60;99.90;;;;;;5076136;28;20499;-84
2022/04/02 05:36:43;;;;;;;9.40;3.30;;;0.60;99.90;;;;;;5076197;28;20124;-85
2022/04/02 05:39:18;;;;;;;11.55;3.63;;;0.70;99.90;;;;;;5076281;28;20376;-84
2022/04/02 05:41:43;;;;;;;15.65;4.35;;;0.60;99.90;;;;;;5076097;28;20021;-84
2022/04/02 05:44:13;;;;;;;10.35;4.22;;;0.60;99.90;;;;;;5075772;28;20027;-84
2022/04/02 05:46:39;;;;;;;6.03;3.70;;;0.70;99.90;;;;;;5058560;28;20383;-84
2022/04/02 05:49:04;;;;;;;10.05;3.95;;;0.60;99.90;;;;;;5058139;28;20033;-84
2022/04/02 05:51:38;;;;;;;7.05;3.70;;;0.70;99.90;;;;;;5064609;28;20029;-83
2022/04/02 05:54:04;;;;;;;6.15;3.78;;;0.70;99.90;;;;;;5055985;28;20059;-83
2022/04/02 05:56:30;;;;;;;10.82;4.30;;;0.70;99.90;;;;;;5056124;28;20029;-83
2022/04/02 05:58:56;;;;;;;7.72;4.25;;;0.60;99.90;;;;;;5043421;28;20032;-83
2022/04/02 06:01:29;;;;;;;11.63;3.92;;;0.60;99.90;;;;;;5075887;28;20029;-83
2022/04/02 06:03:54;;;;;;;5.20;3.15;;;0.70;99.90;;;;;;5076064;28;20033;-83
2022/04/02 06:06:24;;;;;;;6.82;3.40;;;0.70;99.90;;;;;;5057985;28;20017;-83
2022/04/02 06:08:50;;;;;;;9.60;4.13;;;0.70;99.90;;;;;;5075558;28;20021;-83
2022/04/02 06:11:15;;;;;;;7.45;3.28;;;0.60;99.90;;;;;;5075532;28;20566;-83
2022/04/02 06:13:41;;;;;;;6.30;3.17;;;0.60;99.90;;;;;;5057338;28;20445;-83
2022/04/02 06:16:17;;;;;;;9.07;4.18;;;0.60;99.90;;;;;;5075595;28;20040;-82
2022/04/02 06:18:43;;;;;;;7.15;3.65;;;0.70;99.90;;;;;;5075377;28;20058;-82
2022/04/02 06:21:35;;;;;;;10.45;4.35;;;0.60;99.90;;;;;;5075361;28;20090;-82
2022/04/02 06:24:04;;;;;;;7.40;3.97;;;0.70;99.90;;;;;;5074917;28;20029;-83
2022/04/02 06:26:29;;;;;;;17.73;4.00;;;0.70;99.90;;;;;;5075243;28;20020;-82
2022/04/02 06:28:55;;;;;;;10.00;3.50;;;0.70;99.90;;;;;;5052852;28;20025;-84
2022/04/02 06:31:25;;;;;;;11.02;3.65;;;0.70;99.90;;;;;;5061617;28;20039;-83
2022/04/02 06:33:50;;;;;;;11.27;4.20;;;0.70;99.90;;;;;;5074712;28;20468;-83
2022/04/02 06:36:16;;;;;;;12.20;4.40;;;0.70;99.90;;;;;;5074831;28;20102;-83
2022/04/02 06:38:49;;;;;;;11.63;4.38;;;0.80;99.90;;;;;;5070633;28;20429;-82
2022/04/02 06:41:14;;;;;;;13.57;4.63;;;0.70;99.90;;;;;;5070098;28;20025;-82
2022/04/02 06:43:41;;;;;;;7.45;3.78;;;0.70;99.90;;;;;;5074633;28;20035;-83
2022/04/02 06:46:07;;;;;;;10.82;3.83;;;0.70;99.90;;;;;;5075096;28;20055;-83
2022/04/02 06:48:33;;;;;;;11.55;4.40;;;0.80;99.90;;;;;;5057024;28;20408;-82
2022/04/02 06:51:05;;;;;;;8.02;4.53;;;0.80;99.90;;;;;;5074812;28;20069;-83
2022/04/02 06:53:38;;;;;;;4.95;3.75;;;0.80;99.90;;;;;;5057298;28;20389;-84
2022/04/02 06:56:04;;;;;;;12.15;4.18;;;0.80;99.90;;;;;;5074636;28;20044;-83
2022/04/02 06:58:44;;;;;;;10.48;4.30;;;0.80;99.90;;;;;;5056202;28;20020;-82
2022/04/02 07:01:10;;;;;;;7.35;4.15;;;0.80;99.90;;;;;;5074662;28;20035;-82
2022/04/02 07:03:41;;;;;;;8.90;4.15;;;0.80;99.90;;;;;;5074321;28;20029;-82
2022/04/02 07:06:08;;;;;;;7.88;4.53;;;0.80;99.90;;;;;;5074507;28;20031;-83
2022/04/02 07:08:38;;;;;;;6.95;4.00;;;0.80;99.90;;;;;;5056733;28;20019;-83
2022/04/02 07:11:05;;;;;;;14.02;5.47;;;0.80;99.90;;;;;;5074241;28;20021;-82
2022/04/02 07:13:34;;;;;;;10.02;4.15;;;0.80;99.90;;;;;;5074137;28;20105;-82
2022/04/02 07:16:02;;;;;;;12.18;4.45;;;0.80;99.90;;;;;;5056495;28;20025;-82
2022/04/02 07:18:48;;;;;;;8.88;3.83;;;0.80;99.90;;;;;;5074310;28;20017;-84
2022/04/02 07:21:14;;;;;;;;;;;0.80;99.90;;;;;;5056684;28;20028;-82
2022/04/02 07:23:45;;;;;;;11.30;4.85;;;0.90;99.90;;;;;;5074264;28;19908;-83
2022/04/02 07:26:12;;;;;;;7.70;4.40;;;0.90;99.90;;;;;;5074412;28;20372;-83
2022/04/02 07:28:53;;;;;;;17.10;4.60;;;0.90;99.90;;;;;;5073931;28;20042;-83
2022/04/02 07:31:19;;;;;;;7.90;4.03;;;0.90;99.90;;;;;;5055953;28;20480;-82
2022/04/02 07:33:45;;;;;;;9.43;4.85;;;0.90;99.90;;;;;;5056019;28;20024;-83
2022/04/02 07:36:23;;;;;;;7.55;4.30;;;1.00;99.90;;;;;;5073964;28;20454;-83
2022/04/02 07:39:03;;;;;;;9.13;4.50;;;1.00;99.90;;;;;;5074068;28;20583;-82
2022/04/02 07:41:43;;;;;;;12.95;5.05;;;1.00;99.90;;;;;;5056059;28;20024;-83
2022/04/02 07:44:41;;;;;;;11.65;4.63;;;1.20;99.90;;;;;;5073391;28;20472;-84
2022/04/02 07:47:11;;;;;;;15.55;5.07;;;1.10;99.90;;;;;;5055896;28;20391;-83
2022/04/02 07:49:57;;;;;;;12.00;5.72;;;1.20;99.90;;;;;;5073734;28;20059;-82
2022/04/02 07:52:23;;;;;;;14.52;4.63;;;1.20;99.90;;;;;;5073228;28;20025;-82
2022/04/02 07:54:56;;;;;;;7.72;4.90;;;1.20;99.90;;;;;;5073598;28;20033;-82
2022/04/02 07:57:26;;;;;;;16.50;4.40;;;1.20;99.90;;;;;;5054574;28;20024;-82
2022/04/02 07:59:58;;;;;;;10.85;4.47;;;1.20;99.90;;;;;;5055009;28;20550;-84
2022/04/02 08:05:23;;;;;;;12.15;4.35;;;1.30;99.90;;;;;;5059493;28;20067;-83
2022/04/02 08:07:55;;;;;;;7.95;4.53;;;1.30;99.90;;;;;;5072850;28;20016;-83
2022/04/02 08:10:23;;;;;;;12.60;4.47;;;1.30;99.90;;;;;;5073732;28;20029;-84
2022/04/02 08:13:00;;;;;;;6.00;4.22;;;1.30;99.90;;;;;;5073011;28;20033;-83
2022/04/02 08:15:26;;;;;;;7.22;4.07;;;1.30;99.90;;;;;;5073148;28;20024;-82
2022/04/02 08:17:56;;;;;;;8.73;4.78;;;1.40;99.90;;;;;;5073331;28;20380;-85
2022/04/02 08:20:23;;;;;;;9.45;4.47;;;1.40;99.90;;;;;;5073181;28;20484;-82
2022/04/02 08:22:56;;;;;;;10.52;4.97;;;1.40;99.90;;;;;;5072968;28;20024;-83
2022/04/02 08:25:21;;;;;;;13.27;4.65;;;1.60;99.90;;;;;;5073108;28;20021;-82
2022/04/02 08:27:57;;;;;;;12.48;4.75;;;1.60;99.90;;;;;;5072687;28;20519;-84
2022/04/02 08:30:35;;;;;;;19.73;4.47;;;1.60;99.90;;;;;;5055169;28;20035;-84
2022/04/02 08:33:15;;;;;;;9.65;4.82;;;1.70;99.90;;;;;;5054802;28;20087;-84
2022/04/02 08:36:20;;;;;;;11.35;4.50;;;1.70;99.90;;;;;;5072830;28;20780;-83
2022/04/02 08:38:57;;;;;;;6.85;3.88;;;1.90;99.90;;;;;;5052810;28;20104;-84
2022/04/02 08:41:23;;;;;;;6.20;4.75;;;1.90;99.90;;;;;;5068772;28;20028;-83
2022/04/02 08:44:32;;;;;;;14.93;4.30;;;2.00;99.90;;;;;;5054559;28;20024;-84
2022/04/02 08:47:29;;;;;;;14.80;4.57;;;2.10;99.90;;;;;;5072404;28;20028;-83
2022/04/02 08:50:30;;;;;;;13.70;6.32;;;2.20;99.90;;;;;;5072806;28;20077;-82
2022/04/02 08:53:19;;;;;;;12.23;4.60;;;2.30;99.90;;;;;;5072277;28;20433;-83
2022/04/02 08:56:05;;;;;;;8.45;4.10;;;2.40;99.90;;;;;;5072071;28;20016;-82
2022/04/02 08:58:50;;;;;;;15.35;4.55;;;2.50;99.90;;;;;;5034794;28;20033;-82
2022/04/02 09:01:25;;;;;;;6.40;4.18;;;2.50;99.90;;;;;;5065674;28;20074;-83
2022/04/02 09:04:35;;;;;;;15.63;5.05;;;2.60;99.90;;;;;;5072620;28;20024;-82
2022/04/02 09:07:52;;;;;;;10.35;5.03;;;2.60;99.90;;;;;;5072556;28;20041;-82
2022/04/02 09:10:39;;;;;;;14.13;4.47;;;2.70;99.90;;;;;;5072490;28;20379;-84
2022/04/02 09:13:25;;;;;;;11.30;4.45;;;2.70;99.90;;;;;;5071914;28;20312;-83
2022/04/02 09:16:05;;;;;;;6.78;3.83;;;2.70;99.90;;;;;;5072212;28;20094;-84
2022/04/02 09:18:36;;;;;;;7.57;4.07;;;2.70;99.90;;;;;;5054643;28;20468;-83
2022/04/02 09:21:07;;;;;;;7.22;3.95;;;2.70;99.90;;;;;;5072183;28;20074;-83
2022/04/02 09:23:44;;;;;;;10.43;4.35;;;2.70;99.90;;;;;;5034493;28;20029;-82
2022/04/02 09:26:54;;;;;;;13.63;3.72;;;2.60;99.90;;;;;;5066772;28;20028;-83
2022/04/02 09:29:30;;;;;;;10.23;4.15;;;2.60;99.90;;;;;;5071472;28;20025;-83
2022/04/02 09:32:25;;;;;;;10.68;4.40;;;2.70;99.90;;;;;;5069550;28;20039;-83
2022/04/02 09:35:14;;;;;;;7.78;3.53;;;2.70;99.90;;;;;;5072074;28;20448;-82
2022/04/02 09:38:11;;;;;;;7.25;4.30;;;2.90;99.90;;;;;;5071471;28;20032;-84
2022/04/02 09:41:09;;;;;;;7.68;3.60;;;2.90;99.90;;;;;;5054770;28;20033;-82
2022/04/02 09:43:49;;;;;;;8.13;3.58;;;2.90;99.90;;;;;;5071806;28;20032;-83
2022/04/02 09:46:50;;;;;;;6.75;3.70;;;3.00;99.90;;;;;;5072213;28;20025;-83
2022/04/02 09:49:41;;;;;;;9.30;4.30;;;3.00;99.90;;;;;;5053698;28;20035;-83
2022/04/02 09:52:08;;;;;;;8.18;4.40;;;3.00;99.90;;;;;;5053911;28;20128;-83
2022/04/02 09:54:51;;;;;;;16.23;6.32;;;3.10;99.90;;;;;;5071979;28;20103;-83
2022/04/02 09:57:22;;;;;;;8.50;3.90;;;3.00;99.90;;;;;;5071589;28;20024;-85
2022/04/02 10:00:13;;;;;;;11.65;4.20;;;3.10;99.90;;;;;;5071990;28;20021;-85
2022/04/02 10:03:03;;;;;;;9.48;4.00;;;3.10;99.90;;;;;;5053558;28;20027;-84
2022/04/02 10:05:42;;;;;;;9.73;4.03;;;3.10;99.90;;;;;;5072051;28;20017;-83
2022/04/02 10:08:39;;;;;;;10.43;3.25;;;3.00;99.90;;;;;;5073806;28;20085;-83
2022/04/02 10:11:07;;;;;;;11.57;4.50;;;3.00;99.90;;;;;;5074432;28;20028;-83
2022/04/02 10:13:35;;;;;;;9.13;4.15;;;3.00;99.90;;;;;;5074304;28;20036;-83
2022/04/02 10:16:03;;;;;;;6.25;3.38;;;3.00;99.90;;;;;;5074802;28;20104;-83
2022/04/02 10:18:35;;;;;;;8.10;4.30;;;2.90;99.90;;;;;;5057479;28;20158;-84
2022/04/02 10:21:05;;;;;;;8.32;5.25;;;3.00;99.90;;;;;;5075659;28;20074;-84
2022/04/02 10:23:40;;;;;;;6.43;3.80;;;3.10;99.90;;;;;;5057293;28;20029;-86
2022/04/02 10:26:08;;;;;;;9.88;3.92;;;3.10;99.90;;;;;;5075262;28;20028;-85
2022/04/02 10:29:08;;;;;;;9.27;3.90;;;3.10;99.90;;;;;;5075036;28;20029;-84
2022/04/02 10:32:04;;;;;;;11.00;4.18;;;3.20;99.90;;;;;;5075217;28;20021;-83
2022/04/02 10:34:48;;;;;;;4.88;3.55;;;3.20;99.90;;;;;;5074532;28;20426;-85
2022/04/02 10:37:18;;;;;;;7.90;3.90;;;3.20;99.90;;;;;;5057022;28;20044;-84
2022/04/02 10:40:12;;;;;;;10.55;4.22;;;3.20;99.90;;;;;;5074738;28;20488;-85
2022/04/02 10:42:40;;;;;;;7.63;3.75;;;3.20;99.90;;;;;;5056585;28;20361;-86
2022/04/02 10:45:19;;;;;;;7.70;3.55;;;3.30;99.90;;;;;;5057092;28;20111;-85
2022/04/02 10:48:12;;;;;;;11.68;3.90;;;3.30;99.90;;;;;;5075315;28;20033;-85
2022/04/02 10:50:39;;;;;;;11.23;4.55;;;3.30;99.90;;;;;;5055924;28;20395;-85
2022/04/02 10:53:10;;;;;;;6.45;3.10;;;3.20;99.90;;;;;;5074838;28;20571;-85
2022/04/02 10:55:43;;;;;;;11.13;4.32;;;3.20;99.90;;;;;;5056967;28;20476;-83
2022/04/02 10:58:11;;;;;;;12.93;5.30;;;3.20;99.90;;;;;;5074612;28;20017;-85
2022/04/02 11:00:43;;;;;;;11.13;4.07;;;3.20;99.90;;;;;;5056959;28;20024;-84
2022/04/02 11:03:29;;;;;;;8.98;3.92;;;3.20;99.90;;;;;;5074751;28;20029;-84
2022/04/02 11:05:56;;;;;;;6.75;3.65;;;3.30;99.90;;;;;;5074854;28;20056;-85
2022/04/02 11:08:42;;;;;;;11.65;3.85;;;3.30;99.90;;;;;;5074680;28;20032;-84
2022/04/02 11:11:21;;;;;;;8.15;3.50;;;3.30;99.90;;;;;;5074686;28;20024;-84
2022/04/02 11:14:20;;;;;;;8.02;4.07;;;3.40;99.90;;;;;;5074171;28;20021;-85
2022/04/02 11:16:45;;;;;;;8.00;3.45;;;3.40;99.90;;;;;;5056507;28;20033;-85
2022/04/02 11:22:38;;;;;;;7.28;3.40;;;3.40;99.90;;;;;;5074504;28;20127;-85
2022/04/02 11:25:09;;;;;;;6.97;3.60;;;3.40;99.90;;;;;;5056417;28;20472;-84
2022/04/02 11:27:41;;;;;;;8.43;3.35;;;3.40;99.90;;;;;;5074047;28;20376;-85
2022/04/02 11:30:11;;;;;;;4.95;3.40;;;3.30;99.90;;;;;;5056285;28;20119;-85
2022/04/02 11:32:46;;;;;;;5.38;3.15;;;3.40;99.90;;;;;;5074220;28;20028;-86
2022/04/02 11:35:24;;;;;;;8.40;3.30;;;3.40;99.90;;;;;;5074101;28;20045;-85
2022/04/02 11:38:09;;;;;;;10.73;4.05;;;3.50;99.90;;;;;;5074111;28;20031;-85
2022/04/02 11:41:16;;;;;;;9.85;3.30;;;3.50;99.90;;;;;;5074106;28;20039;-86
2022/04/02 11:43:44;;;;;;;6.10;3.85;;;3.60;99.90;;;;;;5073458;28;20039;-86
2022/04/02 11:46:20;;;;;;;7.97;3.92;;;3.70;99.90;;;;;;5073980;28;20017;-86
2022/04/02 11:48:54;;;;;;;5.78;3.38;;;3.70;99.90;;;;;;5056062;28;20044;-86
2022/04/02 11:51:27;;;;;;;8.45;3.92;;;3.70;99.90;;;;;;5073794;28;20092;-85
2022/04/02 11:54:08;;;;;;;10.10;3.55;;;3.70;99.90;;;;;;5055837;28;20119;-85
2022/04/02 11:56:48;;;;;;;10.95;4.68;;;3.60;99.90;;;;;;5073833;28;20422;-86
2022/04/02 11:59:15;;;;;;;7.82;4.00;;;3.50;99.90;;;;;;5073494;28;20107;-87
2022/04/02 12:01:50;;;;;;;8.60;3.58;;;3.50;99.90;;;;;;5073585;28;20095;-87
2022/04/02 12:04:26;;;;;;;7.10;3.97;;;3.50;99.90;;;;;;5073657;28;20024;-86
2022/04/02 12:07:06;;;;;;;6.07;3.67;;;3.50;99.90;;;;;;5055691;28;20499;-86
2022/04/02 12:09:33;;;;;;;12.07;4.72;;;3.50;99.90;;;;;;5073433;28;20021;-85
2022/04/02 12:12:22;;;;;;;13.82;4.00;;;3.50;99.90;;;;;;5055514;28;20054;-85
2022/04/02 12:14:48;;;;;;;7.18;3.28;;;3.50;99.90;;;;;;5073351;28;20024;-86
2022/04/02 12:17:17;;;;;;;8.93;4.20;;;3.50;99.90;;;;;;5055592;28;20107;-87
2022/04/02 12:19:52;;;;;;;8.73;4.15;;;3.50;99.90;;;;;;5072817;28;20043;-86
2022/04/02 12:22:31;;;;;;;;;;;3.50;99.90;;;;;;5055339;28;20028;-86
2022/04/02 12:25:01;;;;;;;9.43;4.18;;;3.50;99.90;;;;;;5073300;28;19901;-87
2022/04/02 12:27:34;;;;;;;6.78;3.65;;;3.50;99.90;;;;;;5054710;28;20052;-86
2022/04/02 12:30:02;;;;;;;7.07;3.83;;;3.50;99.90;;;;;;5054517;28;20020;-86
2022/04/02 12:32:32;;;;;;;7.35;3.60;;;3.50;99.90;;;;;;5073040;28;20039;-86
2022/04/02 12:35:32;;;;;;;11.15;3.67;;;3.50;99.90;;;;;;5072953;28;20086;-87
2022/04/02 12:38:02;;;;;;;7.30;3.58;;;3.50;99.90;;;;;;5073059;28;20032;-86
2022/04/02 12:40:56;;;;;;;7.53;3.70;;;3.50;99.90;;;;;;5055045;28;20032;-86
2022/04/02 12:43:30;;;;;;;6.82;3.53;;;3.50;99.90;;;;;;5054570;28;20035;-86
2022/04/02 12:46:25;;;;;;;8.88;2.97;;;3.50;99.90;;;;;;5055007;28;20021;-87
2022/04/02 12:48:50;;;;;;;10.90;3.75;;;3.50;99.90;;;;;;5072887;28;20491;-86
2022/04/02 12:51:23;;;;;;;12.52;4.15;;;3.50;99.90;;;;;;5072938;28;20020;-86
2022/04/02 12:54:09;;;;;;;9.15;3.30;;;3.60;99.90;;;;;;5072788;28;20422;-86
2022/04/02 12:56:39;;;;;;;10.82;3.72;;;3.50;99.90;;;;;;5072437;28;20045;-86
2022/04/02 12:59:17;;;;;;;8.30;3.83;;;3.50;99.90;;;;;;5072331;28;20033;-86
2022/04/02 13:01:43;;;;;;;13.73;3.90;;;3.50;99.90;;;;;;5072845;28;20024;-87
2022/04/02 13:04:24;;;;;;;6.10;3.53;;;3.50;99.90;;;;;;5072641;28;20427;-86
2022/04/02 13:06:50;;;;;;;9.35;3.58;;;3.50;99.90;;;;;;5054581;28;20539;-87
2022/04/02 13:09:22;;;;;;;10.38;3.50;;;3.50;99.90;;;;;;5072665;28;20095;-87
2022/04/02 13:11:58;;;;;;;5.22;3.25;;;3.50;99.90;;;;;;5072403;28;20043;-87
2022/04/02 13:14:28;;;;;;;10.48;3.40;;;3.50;99.90;;;;;;5072670;28;20111;-87
2022/04/02 13:17:29;;;;;;;5.13;3.45;;;3.50;99.90;;;;;;5072611;28;20032;-87
2022/04/02 13:23:04;;;;;;;7.63;3.35;;;3.50;99.90;;;;;;5072442;28;20431;-87
2022/04/02 13:25:32;;;;;;;12.30;3.58;;;3.50;99.90;;;;;;5072497;28;20082;-85
2022/04/02 13:28:47;;;;;;;5.57;3.13;;;3.40;99.90;;;;;;5072283;28;20021;-87
2022/04/02 13:31:28;;;;;;;10.32;3.60;;;3.40;99.90;;;;;;4971795;28;20085;-87
2022/04/02 13:34:12;;;;;;;16.90;3.00;;;3.40;99.90;;;;;;4971723;28;20035;-87
2022/04/02 13:37:17;;;;;;;5.28;3.25;;;3.40;99.90;;;;;;5042046;28;20147;-86
2022/04/02 13:39:44;;;;;;;9.50;2.90;;;3.50;99.90;;;;;;5072263;28;20442;-87
2022/04/02 13:42:25;;;;;;;6.65;2.92;;;3.50;99.90;;;;;;5056656;28;20483;-87
2022/04/02 13:44:57;;;;;;;4.82;2.78;;;3.40;99.90;;;;;;5076441;28;20052;-86
2022/04/02 13:47:31;;;;;;;25.50;12.00;;;3.50;99.90;;;;;;5076263;28;20021;-87
2022/04/02 13:49:58;;;;;;;9.82;5.53;;;3.50;99.90;;;;;;5058431;28;20104;-88